Carlos Cunha — CUET2 — position and weather

sailwx.info

Track history (hours):
 
Tides and Currents Weather Stations Pressure Air Temp Water Temp Dewpoint Dewpoint Depression Visibility Wind Speed Wind Dir Waves Ship Positions

Carlos Cunha

Last reported at 2017-Oct-19 02:01 UTC. Time now 2017-Oct-19 02:15 UTC.
Position N 37°48' W 009°19'.

Length 21 m.

Type: Fishing. MMSI: 263422240.

Date/timePositionNaut miles runAvg speedWind from/ knotsBaromVisibWave heightAir tempDewpointWater temp
2017-Oct-19 02:01N 37°48' W 009°19'1 1.3
2017-Oct-19 01:27N 37°48' W 009°20'1 1.6
2017-Oct-19 01:00N 37°48' W 009°19'1 1.2
2017-Oct-19 00:07N 37°48' W 009°20'2 3.4
2017-Oct-18 23:39N 37°50' W 009°19'0 0.7
2017-Oct-18 23:21N 37°50' W 009°19'1 0.9
2017-Oct-18 21:59N 37°51' W 009°20'0 0.3
2017-Oct-18 21:30N 37°51' W 009°20'0 0.2
2017-Oct-18 20:55N 37°51' W 009°20'0 0.3
2017-Oct-18 20:30N 37°51' W 009°20'1 1.8
2017-Oct-18 20:01N 37°50' W 009°20'2 0.5
2017-Oct-18 15:19N 37°52' W 009°22'0 0.5
2017-Oct-18 14:59N 37°52' W 009°22'9 1.2
2017-Oct-18 07:09N 37°44' W 009°15'1 6.5
2017-Oct-18 06:59N 37°45' W 009°16'1 2.0
2017-Oct-18 06:30N 37°46' W 009°15'1 1.5
2017-Oct-18 06:00N 37°47' W 009°15'1 1.5
2017-Oct-18 05:30N 37°48' W 009°16'1 1.5
2017-Oct-18 05:00N 37°48' W 009°16'1 1.0
2017-Oct-18 04:29N 37°48' W 009°16'1 1.1
2017-Oct-18 04:00N 37°48' W 009°17'1 1.0
2017-Oct-18 03:30N 37°49' W 009°17'1 1.7
2017-Oct-18 03:00N 37°49' W 009°16'1 1.1
2017-Oct-18 02:29N 37°50' W 009°17'1 1.1
2017-Oct-18 02:00N 37°50' W 009°18'0 0.5
2017-Oct-18 01:30N 37°50' W 009°18'0 0.6
2017-Oct-18 01:00N 37°50' W 009°18'1 1.3
2017-Oct-18 00:24N 37°51' W 009°18'0 0.5
2017-Oct-18 00:00N 37°51' W 009°18'0 0.8
2017-Oct-17 23:31N 37°51' W 009°19'1 1.7
2017-Oct-17 23:00N 37°51' W 009°18'0 0.7
2017-Oct-17 22:30N 37°51' W 009°19'0 0.8
2017-Oct-17 22:00N 37°51' W 009°19'0 0.9
2017-Oct-17 21:30N 37°52' W 009°19'1 2.7
2017-Oct-17 21:00N 37°50' W 009°19'7 0.5
2017-Oct-17 06:43N 37°44' W 009°17'1 0.6
2017-Oct-17 05:06N 37°45' W 009°18'0 3.1
2017-Oct-17 05:00N 37°45' W 009°17'0 0.6
2017-Oct-17 04:21N 37°45' W 009°17'0 0.9
2017-Oct-17 03:59N 37°46' W 009°17'0 0.6
2017-Oct-17 03:16N 37°46' W 009°17'0 1.0
2017-Oct-17 02:59N 37°46' W 009°17'1 1.1
2017-Oct-17 02:28N 37°47' W 009°18'1 0.4
2017-Oct-17 00:26N 37°47' W 009°19'1 1.0
2017-Oct-16 23:32N 37°48' W 009°19'0 0.6
2017-Oct-16 23:30N 37°48' W 009°19'1 0.8
2017-Oct-16 22:08N 37°49' W 009°20'0 0.8
2017-Oct-16 21:56N 37°49' W 009°20'3 6.0
2017-Oct-16 21:29N 37°46' W 009°19'4 0.9
2017-Oct-16 16:43N 37°48' W 009°25'2 7.0
2017-Oct-16 16:29N 37°47' W 009°23'2 4.9
2017-Oct-16 16:00N 37°46' W 009°20'0 0.8
2017-Oct-16 15:30N 37°46' W 009°20'2 4.8
2017-Oct-16 15:00N 37°44' W 009°19'28 1.9
2017-Oct-16 00:46N 37°17' W 009°19'1 0.2
2017-Oct-15 21:09N 37°17' W 009°18'1 8.7
2017-Oct-15 21:00N 37°18' W 009°17'8 7.9
2017-Oct-15 20:03N 37°25' W 009°18'2 8.3
2017-Oct-15 19:50N 37°27' W 009°18'14 8.1
2017-Oct-15 18:06N 37°41' W 009°22'1 7.9
2017-Oct-15 18:00N 37°42' W 009°22'4 7.9
2017-Oct-15 17:30N 37°46' W 009°23'4 7.9
2017-Oct-15 17:00N 37°50' W 009°24'3 6.4
2017-Oct-15 16:30N 37°53' W 009°24'4 8.5
2017-Oct-15 16:00N 37°52' W 009°19'4 8.1
2017-Oct-15 15:30N 37°51' W 009°14'3 5.3
2017-Oct-15 15:00N 37°48' W 009°14'5 4.9
2017-Oct-15 14:00N 37°44' W 009°17'3 6.3
2017-Oct-15 13:30N 37°43' W 009°21'2 4.9
2017-Oct-15 13:00N 37°42' W 009°24'3 5.8
2017-Oct-15 12:29N 37°41' W 009°27'3 5.7
2017-Oct-15 12:00N 37°39' W 009°30'18 2.1
2017-Oct-15 03:22N 37°24' W 009°18'0 0.5
2017-Oct-15 02:58N 37°24' W 009°18'0 0.7
2017-Oct-15 02:30N 37°23' W 009°18'17 7.0
2017-Oct-15 00:05N 37°40' W 009°23'1 8.7
2017-Oct-15 00:00N 37°41' W 009°23'4 8.6
2017-Oct-14 23:30N 37°45' W 009°24'4 8.7
2017-Oct-14 23:00N 37°49' W 009°25'7 8.7
2017-Oct-14 22:11N 37°56' W 009°26'2 8.0
2017-Oct-14 21:59N 37°58' W 009°26'4 8.2
2017-Oct-14 21:30N 38°01' W 009°29'4 8.8
2017-Oct-14 21:00N 38°04' W 009°33'4 8.5
2017-Oct-14 20:30N 38°07' W 009°36'4 8.3
2017-Oct-14 19:59N 38°11' W 009°40'5 8.1
2017-Oct-14 19:26N 38°14' W 009°43'5 8.1
2017-Oct-14 18:51N 38°18' W 009°47'3 8.2
2017-Oct-14 18:25N 38°21' W 009°50'3 8.4
2017-Oct-14 18:00N 38°23' W 009°52'4 8.1
2017-Oct-14 17:30N 38°27' W 009°55'4 7.9
2017-Oct-14 17:00N 38°30' W 009°59'4 8.7
2017-Oct-14 16:30N 38°33' W 010°02'5 8.7
2017-Oct-14 15:58N 38°37' W 010°06'4 8.3
2017-Oct-14 15:30N 38°40' W 010°09'4 8.1
2017-Oct-14 15:00N 38°43' W 010°12'3 5.2
2017-Oct-14 14:30N 38°46' W 010°13'3 5.9
2017-Oct-14 14:00N 38°48' W 010°13'3 6.4
2017-Oct-14 13:30N 38°51' W 010°15'3 3.8
2017-Oct-14 12:51N 38°54' W 010°15'1 2.7
2017-Oct-14 12:19N 38°55' W 010°15'1 1.5
2017-Oct-14 11:54N 38°56' W 010°16'2 3.3
2017-Oct-14 11:16N 38°57' W 010°14'2 4.4
2017-Oct-14 10:49N 38°59' W 010°13'0 0.9
2017-Oct-14 10:30N 38°60' W 010°14'4 7.4
2017-Oct-14 10:00N 38°59' W 010°18'3 5.2
2017-Oct-14 09:30N 38°59' W 010°22'3 7.2
2017-Oct-14 09:00N 39°02' W 010°20'3 5.8
2017-Oct-14 08:29N 39°05' W 010°19'2 4.7
2017-Oct-14 08:01N 39°07' W 010°18'3 5.1
2017-Oct-14 07:27N 39°09' W 010°16'2 4.7
2017-Oct-14 07:00N 39°11' W 010°15'4 5.8
2017-Oct-14 06:22N 39°14' W 010°12'1 0.5
2017-Oct-14 05:03N 39°15' W 010°12'0 0.5
2017-Oct-14 04:54N 39°15' W 010°12'0 0.6
2017-Oct-14 04:30N 39°15' W 010°12'2 3.3
2017-Oct-14 04:00N 39°14' W 010°12'4 7.3
2017-Oct-14 03:30N 39°10' W 010°13'4 7.5
2017-Oct-14 03:00N 39°06' W 010°13'4 7.6
2017-Oct-14 02:30N 39°02' W 010°13'4 7.4
2017-Oct-14 02:00N 38°59' W 010°13'4 7.4
2017-Oct-14 01:30N 38°55' W 010°13'4 7.6
2017-Oct-14 01:00N 38°51' W 010°13'10 8.4
2017-Oct-13 23:48N 38°41' W 010°14'2 7.6
2017-Oct-13 23:30N 38°39' W 010°14'100 6.9
2017-Oct-13 09:06N 40°16' W 009°47'  
2017-Oct-10 18:16N 40°56' W 010°36'  
Track history (hours):
 
Tides and Currents Weather Stations Pressure Air Temp Water Temp Dewpoint Dewpoint Depression Visibility Wind Speed Wind Dir Waves Ship Positions

Carlos Cunha

Last reported at 2017-Oct-19 02:01 UTC. Time now 2017-Oct-19 02:15 UTC.
Position N 37°48' W 009°19'.

Length 21 m.

Type: Fishing. MMSI: 263422240.

Date/timePositionNaut miles runAvg speedWind from/ knotsBaromVisibWave heightAir tempDewpointWater temp
2017-Oct-19 02:01N 37°48' W 009°19'1 1.3
2017-Oct-19 01:27N 37°48' W 009°20'1 1.6
2017-Oct-19 01:00N 37°48' W 009°19'1 1.2
2017-Oct-19 00:07N 37°48' W 009°20'2 3.4
2017-Oct-18 23:39N 37°50' W 009°19'0 0.7
2017-Oct-18 23:21N 37°50' W 009°19'1 0.9
2017-Oct-18 21:59N 37°51' W 009°20'0 0.3
2017-Oct-18 21:30N 37°51' W 009°20'0 0.2
2017-Oct-18 20:55N 37°51' W 009°20'0 0.3
2017-Oct-18 20:30N 37°51' W 009°20'1 1.8
2017-Oct-18 20:01N 37°50' W 009°20'2 0.5
2017-Oct-18 15:19N 37°52' W 009°22'0 0.5
2017-Oct-18 14:59N 37°52' W 009°22'9 1.2
2017-Oct-18 07:09N 37°44' W 009°15'1 6.5
2017-Oct-18 06:59N 37°45' W 009°16'1 2.0
2017-Oct-18 06:30N 37°46' W 009°15'1 1.5
2017-Oct-18 06:00N 37°47' W 009°15'1 1.5
2017-Oct-18 05:30N 37°48' W 009°16'1 1.5
2017-Oct-18 05:00N 37°48' W 009°16'1 1.0
2017-Oct-18 04:29N 37°48' W 009°16'1 1.1
2017-Oct-18 04:00N 37°48' W 009°17'1 1.0
2017-Oct-18 03:30N 37°49' W 009°17'1 1.7
2017-Oct-18 03:00N 37°49' W 009°16'1 1.1
2017-Oct-18 02:29N 37°50' W 009°17'1 1.1
2017-Oct-18 02:00N 37°50' W 009°18'0 0.5
2017-Oct-18 01:30N 37°50' W 009°18'0 0.6
2017-Oct-18 01:00N 37°50' W 009°18'1 1.3
2017-Oct-18 00:24N 37°51' W 009°18'0 0.5
2017-Oct-18 00:00N 37°51' W 009°18'0 0.8
2017-Oct-17 23:31N 37°51' W 009°19'1 1.7
2017-Oct-17 23:00N 37°51' W 009°18'0 0.7
2017-Oct-17 22:30N 37°51' W 009°19'0 0.8
2017-Oct-17 22:00N 37°51' W 009°19'0 0.9
2017-Oct-17 21:30N 37°52' W 009°19'1 2.7
2017-Oct-17 21:00N 37°50' W 009°19'7 0.5
2017-Oct-17 06:43N 37°44' W 009°17'1 0.6
2017-Oct-17 05:06N 37°45' W 009°18'0 3.1
2017-Oct-17 05:00N 37°45' W 009°17'0 0.6
2017-Oct-17 04:21N 37°45' W 009°17'0 0.9
2017-Oct-17 03:59N 37°46' W 009°17'0 0.6
2017-Oct-17 03:16N 37°46' W 009°17'0 1.0
2017-Oct-17 02:59N 37°46' W 009°17'1 1.1
2017-Oct-17 02:28N 37°47' W 009°18'1 0.4
2017-Oct-17 00:26N 37°47' W 009°19'1 1.0
2017-Oct-16 23:32N 37°48' W 009°19'0 0.6
2017-Oct-16 23:30N 37°48' W 009°19'1 0.8
2017-Oct-16 22:08N 37°49' W 009°20'0 0.8
2017-Oct-16 21:56N 37°49' W 009°20'3 6.0
2017-Oct-16 21:29N 37°46' W 009°19'4 0.9
2017-Oct-16 16:43N 37°48' W 009°25'2 7.0
2017-Oct-16 16:29N 37°47' W 009°23'2 4.9
2017-Oct-16 16:00N 37°46' W 009°20'0 0.8
2017-Oct-16 15:30N 37°46' W 009°20'2 4.8
2017-Oct-16 15:00N 37°44' W 009°19'28 1.9
2017-Oct-16 00:46N 37°17' W 009°19'1 0.2
2017-Oct-15 21:09N 37°17' W 009°18'1 8.7
2017-Oct-15 21:00N 37°18' W 009°17'8 7.9
2017-Oct-15 20:03N 37°25' W 009°18'2 8.3
2017-Oct-15 19:50N 37°27' W 009°18'14 8.1
2017-Oct-15 18:06N 37°41' W 009°22'1 7.9
2017-Oct-15 18:00N 37°42' W 009°22'4 7.9
2017-Oct-15 17:30N 37°46' W 009°23'4 7.9
2017-Oct-15 17:00N 37°50' W 009°24'3 6.4
2017-Oct-15 16:30N 37°53' W 009°24'4 8.5
2017-Oct-15 16:00N 37°52' W 009°19'4 8.1
2017-Oct-15 15:30N 37°51' W 009°14'3 5.3
2017-Oct-15 15:00N 37°48' W 009°14'5 4.9
2017-Oct-15 14:00N 37°44' W 009°17'3 6.3
2017-Oct-15 13:30N 37°43' W 009°21'2 4.9
2017-Oct-15 13:00N 37°42' W 009°24'3 5.8
2017-Oct-15 12:29N 37°41' W 009°27'3 5.7
2017-Oct-15 12:00N 37°39' W 009°30'18 2.1
2017-Oct-15 03:22N 37°24' W 009°18'0 0.5
2017-Oct-15 02:58N 37°24' W 009°18'0 0.7
2017-Oct-15 02:30N 37°23' W 009°18'17 7.0
2017-Oct-15 00:05N 37°40' W 009°23'1 8.7
2017-Oct-15 00:00N 37°41' W 009°23'4 8.6
2017-Oct-14 23:30N 37°45' W 009°24'4 8.7
2017-Oct-14 23:00N 37°49' W 009°25'7 8.7
2017-Oct-14 22:11N 37°56' W 009°26'2 8.0
2017-Oct-14 21:59N 37°58' W 009°26'4 8.2
2017-Oct-14 21:30N 38°01' W 009°29'4 8.8
2017-Oct-14 21:00N 38°04' W 009°33'4 8.5
2017-Oct-14 20:30N 38°07' W 009°36'4 8.3
2017-Oct-14 19:59N 38°11' W 009°40'5 8.1
2017-Oct-14 19:26N 38°14' W 009°43'5 8.1
2017-Oct-14 18:51N 38°18' W 009°47'3 8.2
2017-Oct-14 18:25N 38°21' W 009°50'3 8.4
2017-Oct-14 18:00N 38°23' W 009°52'4 8.1
2017-Oct-14 17:30N 38°27' W 009°55'4 7.9
2017-Oct-14 17:00N 38°30' W 009°59'4 8.7
2017-Oct-14 16:30N 38°33' W 010°02'5 8.7
2017-Oct-14 15:58N 38°37' W 010°06'4 8.3
2017-Oct-14 15:30N 38°40' W 010°09'4 8.1
2017-Oct-14 15:00N 38°43' W 010°12'3 5.2
2017-Oct-14 14:30N 38°46' W 010°13'3 5.9
2017-Oct-14 14:00N 38°48' W 010°13'3 6.4
2017-Oct-14 13:30N 38°51' W 010°15'3 3.8
2017-Oct-14 12:51N 38°54' W 010°15'1 2.7
2017-Oct-14 12:19N 38°55' W 010°15'1 1.5
2017-Oct-14 11:54N 38°56' W 010°16'2 3.3
2017-Oct-14 11:16N 38°57' W 010°14'2 4.4
2017-Oct-14 10:49N 38°59' W 010°13'0 0.9
2017-Oct-14 10:30N 38°60' W 010°14'4 7.4
2017-Oct-14 10:00N 38°59' W 010°18'3 5.2
2017-Oct-14 09:30N 38°59' W 010°22'3 7.2
2017-Oct-14 09:00N 39°02' W 010°20'3 5.8
2017-Oct-14 08:29N 39°05' W 010°19'2 4.7
2017-Oct-14 08:01N 39°07' W 010°18'3 5.1
2017-Oct-14 07:27N 39°09' W 010°16'2 4.7
2017-Oct-14 07:00N 39°11' W 010°15'4 5.8
2017-Oct-14 06:22N 39°14' W 010°12'1 0.5
2017-Oct-14 05:03N 39°15' W 010°12'0 0.5
2017-Oct-14 04:54N 39°15' W 010°12'0 0.6
2017-Oct-14 04:30N 39°15' W 010°12'2 3.3
2017-Oct-14 04:00N 39°14' W 010°12'4 7.3
2017-Oct-14 03:30N 39°10' W 010°13'4 7.5
2017-Oct-14 03:00N 39°06' W 010°13'4 7.6
2017-Oct-14 02:30N 39°02' W 010°13'4 7.4
2017-Oct-14 02:00N 38°59' W 010°13'4 7.4
2017-Oct-14 01:30N 38°55' W 010°13'4 7.6
2017-Oct-14 01:00N 38°51' W 010°13'10 8.4
2017-Oct-13 23:48N 38°41' W 010°14'2 7.6
2017-Oct-13 23:30N 38°39' W 010°14'100 6.9
2017-Oct-13 09:06N 40°16' W 009°47'  
2017-Oct-10 18:16N 40°56' W 010°36'  

Dump ship's entire track history